MSC Divina — 3FFA5 — position and weather

sailwx.info

Track history (hours):
 
Tides and Currents Weather Stations Pressure Air Temp Water Temp Dewpoint Dewpoint Depression Visibility Wind Speed Wind Dir Waves Ship Positions

MSC Divina

Last reported at 2016-Jan-31 03:34 UTC. Time now 2016-Feb-09 13:55 UTC.
Position N 25°28' W 079°55'.
Warning: this ship's position is 9 days out of date.

Length 333 m; draft 8.6 m.

Type: Passenger vessel. MMSI: 373178000.

Date/timePositionNaut miles runAvg speedWind from/ knotsBaromVisibWave heightAir tempDewpointWater temp
2016-Jan-31 03:34N 25°28' W 079°55'1818.1
2016-Jan-31 02:33N 25°45' W 080°03'7 6.6
2016-Jan-31 01:32N 25°47' W 080°10'0 0.0
2016-Jan-31 00:32N 25°47' W 080°10'0 0.0
2016-Jan-30 23:32N 25°47' W 080°10'0 0.0
2016-Jan-30 22:32N 25°47' W 080°10'0 0.0
2016-Jan-30 21:31N 25°47' W 080°10'0 0.0
2016-Jan-30 20:33N 25°47' W 080°10'0 0.0
2016-Jan-30 19:33N 25°47' W 080°10'0 0.0
2016-Jan-30 18:33N 25°47' W 080°10'0 0.0
2016-Jan-30 17:33N 25°47' W 080°10'0 0.0
2016-Jan-30 16:33N 25°47' W 080°10'0 0.0
2016-Jan-30 15:33N 25°47' W 080°10'0 0.0
2016-Jan-30 14:33N 25°47' W 080°10'0 0.0
2016-Jan-30 13:32N 25°47' W 080°10'0 0.0
2016-Jan-30 12:33N 25°47' W 080°10'0 0.0
2016-Jan-30 11:33N 25°47' W 080°10'0 0.4
2016-Jan-30 10:33N 25°47' W 080°11'7 6.7
2016-Jan-30 09:33N 25°46' W 080°03'1616.3
2016-Jan-30 08:33N 25°35' W 079°50'  
2016-Jan-26 01:18N 25°24' W 079°53'1216.7
2016-Jan-26 00:33N 25°35' W 079°59'1313.2
2016-Jan-25 23:34N 25°46' W 080°08'3 2.5
2016-Jan-25 22:33N 25°47' W 080°10'0 0.0
2016-Jan-25 21:33N 25°47' W 080°10'0 0.0
2016-Jan-25 20:33N 25°47' W 080°10'0 0.0
2016-Jan-25 19:33N 25°47' W 080°10'0 0.0
2016-Jan-25 18:31N 25°47' W 080°10'0 0.0
2016-Jan-25 17:31N 25°47' W 080°10'0 0.0
2016-Jan-25 16:31N 25°47' W 080°10'0 0.0
2016-Jan-25 15:33N 25°47' W 080°10'0 0.0
2016-Jan-25 14:33N 25°47' W 080°10'0 0.0
2016-Jan-25 13:33N 25°47' W 080°10'0 0.0
2016-Jan-25 12:33N 25°47' W 080°10'0 0.0
2016-Jan-25 11:33N 25°47' W 080°10'0 0.3
2016-Jan-25 10:33N 25°47' W 080°11'7 6.7
2016-Jan-25 09:33N 25°46' W 080°03'1312.9
2016-Jan-25 08:33N 25°53' W 079°51'1615.5
2016-Jan-25 07:33N 26°01' W 079°37'1515.1
2016-Jan-25 06:33N 26°14' W 079°28'1716.3
2016-Jan-25 05:30N 26°31' W 079°25'  
2016-Jan-22 04:33N 26°17' W 079°26'1111.0
2016-Jan-22 03:33N 26°06' W 079°30'1010.4
2016-Jan-22 02:33N 25°57' W 079°36'8 8.3
2016-Jan-22 01:33N 25°55' W 079°45'9 8.5
2016-Jan-22 00:34N 25°52' W 079°54'9 8.8
2016-Jan-21 23:34N 25°48' W 080°02'7 7.4
2016-Jan-21 22:33N 25°47' W 080°10'0 0.0
2016-Jan-21 21:31N 25°47' W 080°10'0 0.0
2016-Jan-21 20:33N 25°47' W 080°10'0 0.0
2016-Jan-21 19:33N 25°47' W 080°10'0 0.0
2016-Jan-21 18:33N 25°47' W 080°10'0 0.0
2016-Jan-21 17:33N 25°47' W 080°10'0 0.0
2016-Jan-21 16:33N 25°47' W 080°10'0 0.0
2016-Jan-21 15:33N 25°47' W 080°10'0 0.0
2016-Jan-21 14:33N 25°47' W 080°10'0 0.0
2016-Jan-21 13:33N 25°47' W 080°10'0 0.0
2016-Jan-21 12:33N 25°47' W 080°10'0 0.0
2016-Jan-21 11:29N 25°47' W 080°10'0 0.4
2016-Jan-21 10:33N 25°47' W 080°11'6 5.9
2016-Jan-21 09:33N 25°46' W 080°04'1414.1
2016-Jan-21 08:33N 25°52' W 079°50'1818.1
2016-Jan-21 07:33N 25°60' W 079°32'  
Track history (hours):
 
Tides and Currents Weather Stations Pressure Air Temp Water Temp Dewpoint Dewpoint Depression Visibility Wind Speed Wind Dir Waves Ship Positions

MSC Divina

Last reported at 2016-Jan-31 03:34 UTC. Time now 2016-Feb-09 13:55 UTC.
Position N 25°28' W 079°55'.
Warning: this ship's position is 9 days out of date.

Length 333 m; draft 8.6 m.

Type: Passenger vessel. MMSI: 373178000.

Date/timePositionNaut miles runAvg speedWind from/ knotsBaromVisibWave heightAir tempDewpointWater temp
2016-Jan-31 03:34N 25°28' W 079°55'1818.1
2016-Jan-31 02:33N 25°45' W 080°03'7 6.6
2016-Jan-31 01:32N 25°47' W 080°10'0 0.0
2016-Jan-31 00:32N 25°47' W 080°10'0 0.0
2016-Jan-30 23:32N 25°47' W 080°10'0 0.0
2016-Jan-30 22:32N 25°47' W 080°10'0 0.0
2016-Jan-30 21:31N 25°47' W 080°10'0 0.0
2016-Jan-30 20:33N 25°47' W 080°10'0 0.0
2016-Jan-30 19:33N 25°47' W 080°10'0 0.0
2016-Jan-30 18:33N 25°47' W 080°10'0 0.0
2016-Jan-30 17:33N 25°47' W 080°10'0 0.0
2016-Jan-30 16:33N 25°47' W 080°10'0 0.0
2016-Jan-30 15:33N 25°47' W 080°10'0 0.0
2016-Jan-30 14:33N 25°47' W 080°10'0 0.0
2016-Jan-30 13:32N 25°47' W 080°10'0 0.0
2016-Jan-30 12:33N 25°47' W 080°10'0 0.0
2016-Jan-30 11:33N 25°47' W 080°10'0 0.4
2016-Jan-30 10:33N 25°47' W 080°11'7 6.7
2016-Jan-30 09:33N 25°46' W 080°03'1616.3
2016-Jan-30 08:33N 25°35' W 079°50'  
2016-Jan-26 01:18N 25°24' W 079°53'1216.7
2016-Jan-26 00:33N 25°35' W 079°59'1313.2
2016-Jan-25 23:34N 25°46' W 080°08'3 2.5
2016-Jan-25 22:33N 25°47' W 080°10'0 0.0
2016-Jan-25 21:33N 25°47' W 080°10'0 0.0
2016-Jan-25 20:33N 25°47' W 080°10'0 0.0
2016-Jan-25 19:33N 25°47' W 080°10'0 0.0
2016-Jan-25 18:31N 25°47' W 080°10'0 0.0
2016-Jan-25 17:31N 25°47' W 080°10'0 0.0
2016-Jan-25 16:31N 25°47' W 080°10'0 0.0
2016-Jan-25 15:33N 25°47' W 080°10'0 0.0
2016-Jan-25 14:33N 25°47' W 080°10'0 0.0
2016-Jan-25 13:33N 25°47' W 080°10'0 0.0
2016-Jan-25 12:33N 25°47' W 080°10'0 0.0
2016-Jan-25 11:33N 25°47' W 080°10'0 0.3
2016-Jan-25 10:33N 25°47' W 080°11'7 6.7
2016-Jan-25 09:33N 25°46' W 080°03'1312.9
2016-Jan-25 08:33N 25°53' W 079°51'1615.5
2016-Jan-25 07:33N 26°01' W 079°37'1515.1
2016-Jan-25 06:33N 26°14' W 079°28'1716.3
2016-Jan-25 05:30N 26°31' W 079°25'  
2016-Jan-22 04:33N 26°17' W 079°26'1111.0
2016-Jan-22 03:33N 26°06' W 079°30'1010.4
2016-Jan-22 02:33N 25°57' W 079°36'8 8.3
2016-Jan-22 01:33N 25°55' W 079°45'9 8.5
2016-Jan-22 00:34N 25°52' W 079°54'9 8.8
2016-Jan-21 23:34N 25°48' W 080°02'7 7.4
2016-Jan-21 22:33N 25°47' W 080°10'0 0.0
2016-Jan-21 21:31N 25°47' W 080°10'0 0.0
2016-Jan-21 20:33N 25°47' W 080°10'0 0.0
2016-Jan-21 19:33N 25°47' W 080°10'0 0.0
2016-Jan-21 18:33N 25°47' W 080°10'0 0.0
2016-Jan-21 17:33N 25°47' W 080°10'0 0.0
2016-Jan-21 16:33N 25°47' W 080°10'0 0.0
2016-Jan-21 15:33N 25°47' W 080°10'0 0.0
2016-Jan-21 14:33N 25°47' W 080°10'0 0.0
2016-Jan-21 13:33N 25°47' W 080°10'0 0.0
2016-Jan-21 12:33N 25°47' W 080°10'0 0.0
2016-Jan-21 11:29N 25°47' W 080°10'0 0.4
2016-Jan-21 10:33N 25°47' W 080°11'6 5.9
2016-Jan-21 09:33N 25°46' W 080°04'1414.1
2016-Jan-21 08:33N 25°52' W 079°50'1818.1
2016-Jan-21 07:33N 25°60' W 079°32'  

Dump ship's entire track history